sensor_id;sensor_type;location;lat;lon;timestamp;pressure;altitude;pressure_sealevel;temperature;humidity
58245;BME280;44550;43.864;25.986;2022-10-19T00:02:47;101715.16;;;10.16;67.61
58245;BME280;44550;43.864;25.986;2022-10-19T00:06:47;101748.25;;;10.15;68.32
58245;BME280;44550;43.864;25.986;2022-10-19T00:10:46;101744.50;;;10.05;68.66
58245;BME280;44550;43.864;25.986;2022-10-19T00:14:48;101749.25;;;10.20;69.54
58245;BME280;44550;43.864;25.986;2022-10-19T00:18:47;101728.78;;;10.37;67.55
58245;BME280;44550;43.864;25.986;2022-10-19T00:22:48;101745.78;;;9.86;68.64
58245;BME280;44550;43.864;25.986;2022-10-19T00:26:47;101737.91;;;9.85;68.96
58245;BME280;44550;43.864;25.986;2022-10-19T00:30:50;101740.19;;;9.73;69.35
58245;BME280;44550;43.864;25.986;2022-10-19T00:34:49;101726.69;;;9.56;70.05
58245;BME280;44550;43.864;25.986;2022-10-19T00:38:49;101721.22;;;9.47;70.50
58245;BME280;44550;43.864;25.986;2022-10-19T00:42:53;101709.81;;;9.43;70.71
58245;BME280;44550;43.864;25.986;2022-10-19T00:46:57;101711.78;;;8.88;72.21
58245;BME280;44550;43.864;25.986;2022-10-19T00:50:58;101682.09;;;8.55;73.13
58245;BME280;44550;43.864;25.986;2022-10-19T00:54:58;101698.50;;;9.11;72.40
58245;BME280;44550;43.864;25.986;2022-10-19T00:58:58;101694.06;;;9.40;71.20
58245;BME280;44550;43.864;25.986;2022-10-19T01:02:59;101678.53;;;9.45;70.26
58245;BME280;44550;43.864;25.986;2022-10-19T01:07:01;101681.97;;;9.44;70.40
58245;BME280;44550;43.864;25.986;2022-10-19T01:11:14;101669.47;;;9.63;69.71
58245;BME280;44550;43.864;25.986;2022-10-19T01:15:27;101644.34;;;9.35;69.70
58245;BME280;44550;43.864;25.986;2022-10-19T01:19:51;101663.78;;;9.47;69.75
58245;BME280;44550;43.864;25.986;2022-10-19T01:24:21;101664.63;;;9.46;69.92
58245;BME280;44550;43.864;25.986;2022-10-19T01:28:33;101657.66;;;9.45;69.60
58245;BME280;44550;43.864;25.986;2022-10-19T01:32:54;101651.16;;;9.29;70.00
58245;BME280;44550;43.864;25.986;2022-10-19T01:37:01;101654.38;;;8.88;70.94
58245;BME280;44550;43.864;25.986;2022-10-19T01:41:10;101651.22;;;8.68;71.27
58245;BME280;44550;43.864;25.986;2022-10-19T01:45:14;101648.53;;;8.97;71.47
58245;BME280;44550;43.864;25.986;2022-10-19T01:49:20;101638.16;;;8.99;70.84
58245;BME280;44550;43.864;25.986;2022-10-19T01:53:21;101631.63;;;9.14;70.72
58245;BME280;44550;43.864;25.986;2022-10-19T01:57:26;101609.38;;;8.96;70.42
58245;BME280;44550;43.864;25.986;2022-10-19T02:01:29;101637.91;;;9.56;69.99
58245;BME280;44550;43.864;25.986;2022-10-19T02:05:33;101627.19;;;9.80;68.69
58245;BME280;44550;43.864;25.986;2022-10-19T02:09:33;101623.56;;;9.38;69.50
58245;BME280;44550;43.864;25.986;2022-10-19T02:13:33;101640.06;;;9.04;71.68
58245;BME280;44550;43.864;25.986;2022-10-19T02:17:37;101647.16;;;8.50;73.86
58245;BME280;44550;43.864;25.986;2022-10-19T02:21:40;101644.03;;;8.33;74.19
58245;BME280;44550;43.864;25.986;2022-10-19T02:25:40;101643.09;;;8.58;73.45
58245;BME280;44550;43.864;25.986;2022-10-19T02:29:39;101644.34;;;8.72;72.66
58245;BME280;44550;43.864;25.986;2022-10-19T02:33:39;101647.84;;;8.73;72.92
58245;BME280;44550;43.864;25.986;2022-10-19T02:37:41;101628.69;;;8.42;74.16
58245;BME280;44550;43.864;25.986;2022-10-19T02:41:43;101635.97;;;8.25;75.25
58245;BME280;44550;43.864;25.986;2022-10-19T02:45:50;101629.59;;;8.15;76.04
58245;BME280;44550;43.864;25.986;2022-10-19T02:49:53;101611.22;;;8.11;77.15
58245;BME280;44550;43.864;25.986;2022-10-19T02:53:55;101629.47;;;8.38;77.12
58245;BME280;44550;43.864;25.986;2022-10-19T02:58:00;101624.50;;;8.47;77.11
58245;BME280;44550;43.864;25.986;2022-10-19T03:02:00;101620.44;;;8.57;76.69
58245;BME280;44550;43.864;25.986;2022-10-19T03:05:59;101618.09;;;8.66;76.51
58245;BME280;44550;43.864;25.986;2022-10-19T03:10:01;101622.47;;;8.67;76.75
58245;BME280;44550;43.864;25.986;2022-10-19T03:14:00;101612.31;;;8.76;76.70
58245;BME280;44550;43.864;25.986;2022-10-19T03:17:59;101607.91;;;9.05;75.66
58245;BME280;44550;43.864;25.986;2022-10-19T03:21:59;101600.00;;;9.35;74.53
58245;BME280;44550;43.864;25.986;2022-10-19T03:26:01;101599.56;;;9.53;73.67
58245;BME280;44550;43.864;25.986;2022-10-19T03:30:06;101584.72;;;9.51;73.31
58245;BME280;44550;43.864;25.986;2022-10-19T03:34:05;101595.81;;;9.44;73.46
58245;BME280;44550;43.864;25.986;2022-10-19T03:38:04;101584.44;;;9.40;73.37
58245;BME280;44550;43.864;25.986;2022-10-19T03:42:06;101590.50;;;9.39;73.26
58245;BME280;44550;43.864;25.986;2022-10-19T03:46:05;101583.22;;;9.60;72.51
58245;BME280;44550;43.864;25.986;2022-10-19T03:50:05;101580.06;;;9.75;71.60
58245;BME280;44550;43.864;25.986;2022-10-19T03:54:11;101580.47;;;9.92;70.74
58245;BME280;44550;43.864;25.986;2022-10-19T03:58:12;101568.66;;;10.09;70.14
58245;BME280;44550;43.864;25.986;2022-10-19T04:02:12;101573.88;;;10.08;69.91
58245;BME280;44550;43.864;25.986;2022-10-19T04:06:14;101566.22;;;10.17;69.67
58245;BME280;44550;43.864;25.986;2022-10-19T04:10:18;101571.47;;;10.17;69.38
58245;BME280;44550;43.864;25.986;2022-10-19T04:14:20;101552.22;;;10.15;69.05
58245;BME280;44550;43.864;25.986;2022-10-19T04:18:29;101534.00;;;10.17;68.48
58245;BME280;44550;43.864;25.986;2022-10-19T04:22:29;101560.50;;;10.33;68.49
58245;BME280;44550;43.864;25.986;2022-10-19T04:26:29;101569.72;;;10.18;68.65
58245;BME280;44550;43.864;25.986;2022-10-19T04:30:31;101547.06;;;10.18;68.38
58245;BME280;44550;43.864;25.986;2022-10-19T04:34:31;101501.22;;;9.92;68.30
58245;BME280;44550;43.864;25.986;2022-10-19T04:38:35;101531.91;;;10.00;68.29
58245;BME280;44550;43.864;25.986;2022-10-19T04:42:35;101549.03;;;9.87;68.83
58245;BME280;44550;43.864;25.986;2022-10-19T04:46:44;101554.13;;;9.47;69.96
58245;BME280;44550;43.864;25.986;2022-10-19T04:50:54;101534.16;;;9.12;70.66
58245;BME280;44550;43.864;25.986;2022-10-19T04:55:08;101560.94;;;9.40;70.54
58245;BME280;44550;43.864;25.986;2022-10-19T04:59:10;101533.06;;;9.37;69.86
58245;BME280;44550;43.864;25.986;2022-10-19T05:03:43;101551.81;;;9.57;69.48
58245;BME280;44550;43.864;25.986;2022-10-19T05:08:07;101548.78;;;9.40;69.96
58245;BME280;44550;43.864;25.986;2022-10-19T05:12:45;101529.44;;;9.32;69.97
58245;BME280;44550;43.864;25.986;2022-10-19T05:21:48;101537.25;;;9.32;69.78
58245;BME280;44550;43.864;25.986;2022-10-19T05:32:08;101547.44;;;9.22;70.49
58245;BME280;44550;43.864;25.986;2022-10-19T05:41:53;101545.34;;;9.41;70.28
58245;BME280;44550;43.864;25.986;2022-10-19T05:46:30;101546.28;;;9.83;69.03
58245;BME280;44550;43.864;25.986;2022-10-19T05:51:15;101495.13;;;9.91;67.56
58245;BME280;44550;43.864;25.986;2022-10-19T05:55:27;101539.22;;;10.59;66.30
58245;BME280;44550;43.864;25.986;2022-10-19T06:16:56;101538.22;;;12.06;60.31
58245;BME280;44550;43.864;25.986;2022-10-19T06:21:27;101544.00;;;12.49;59.70
58245;BME280;44550;43.864;25.986;2022-10-19T06:26:33;101546.78;;;12.64;58.74
58245;BME280;44550;43.864;25.986;2022-10-19T08:16:24;101468.41;;;15.59;51.97
58245;BME280;44550;43.864;25.986;2022-10-19T08:20:24;101467.47;;;15.91;50.94
58245;BME280;44550;43.864;25.986;2022-10-19T08:24:23;101460.53;;;15.44;51.10
58245;BME280;44550;43.864;25.986;2022-10-19T08:28:23;101467.53;;;15.52;51.39
58245;BME280;44550;43.864;25.986;2022-10-19T08:32:25;101453.44;;;15.78;50.21
58245;BME280;44550;43.864;25.986;2022-10-19T08:36:24;101453.41;;;15.86;49.86
58245;BME280;44550;43.864;25.986;2022-10-19T08:40:28;101447.25;;;15.88;49.82
58245;BME280;44550;43.864;25.986;2022-10-19T08:44:52;101458.53;;;16.24;48.68
58245;BME280;44550;43.864;25.986;2022-10-19T08:48:58;101477.97;;;16.08;48.72
58245;BME280;44550;43.864;25.986;2022-10-19T08:53:02;101458.66;;;16.01;49.37
58245;BME280;44550;43.864;25.986;2022-10-19T08:57:09;101460.47;;;15.81;49.89
58245;BME280;44550;43.864;25.986;2022-10-19T09:01:18;101460.41;;;16.04;49.38
58245;BME280;44550;43.864;25.986;2022-10-19T09:05:33;101462.97;;;16.17;48.78
58245;BME280;44550;43.864;25.986;2022-10-19T09:09:38;101456.44;;;16.81;48.23
58245;BME280;44550;43.864;25.986;2022-10-19T09:13:42;101433.66;;;16.62;46.66
58245;BME280;44550;43.864;25.986;2022-10-19T09:18:01;101444.03;;;16.96;46.49
58245;BME280;44550;43.864;25.986;2022-10-19T09:22:05;101439.63;;;16.93;46.82
58245;BME280;44550;43.864;25.986;2022-10-19T09:26:12;101456.41;;;16.89;46.35
58245;BME280;44550;43.864;25.986;2022-10-19T09:30:17;101444.16;;;16.77;47.31
58245;BME280;44550;43.864;25.986;2022-10-19T09:34:22;101441.88;;;17.36;46.05
58245;BME280;44550;43.864;25.986;2022-10-19T09:38:29;101409.41;;;17.23;45.83
58245;BME280;44550;43.864;25.986;2022-10-19T09:42:30;101428.41;;;17.62;44.90
58245;BME280;44550;43.864;25.986;2022-10-19T09:46:41;101410.50;;;17.86;44.21
58245;BME280;44550;43.864;25.986;2022-10-19T09:50:45;101394.31;;;18.10;43.07
58245;BME280;44550;43.864;25.986;2022-10-19T09:54:58;101401.59;;;18.54;41.57
58245;BME280;44550;43.864;25.986;2022-10-19T09:58:59;101417.50;;;18.54;41.05
58245;BME280;44550;43.864;25.986;2022-10-19T10:02:59;101417.38;;;18.61;40.71
58245;BME280;44550;43.864;25.986;2022-10-19T10:06:59;101401.28;;;18.77;40.80
58245;BME280;44550;43.864;25.986;2022-10-19T10:11:09;101405.28;;;19.01;39.94
58245;BME280;44550;43.864;25.986;2022-10-19T10:15:15;101375.22;;;18.48;40.82
58245;BME280;44550;43.864;25.986;2022-10-19T10:19:16;101372.31;;;18.64;40.63
58245;BME280;44550;43.864;25.986;2022-10-19T10:23:23;101393.03;;;18.94;39.99
58245;BME280;44550;43.864;25.986;2022-10-19T10:27:32;101354.53;;;19.21;38.95
58245;BME280;44550;43.864;25.986;2022-10-19T10:31:34;101352.72;;;18.74;39.55
58245;BME280;44550;43.864;25.986;2022-10-19T10:35:34;101341.63;;;19.03;39.74
58245;BME280;44550;43.864;25.986;2022-10-19T10:39:39;101330.28;;;19.40;38.80
58245;BME280;44550;43.864;25.986;2022-10-19T10:43:51;101321.25;;;19.50;37.95
58245;BME280;44550;43.864;25.986;2022-10-19T10:47:54;101317.22;;;19.32;38.60
58245;BME280;44550;43.864;25.986;2022-10-19T10:51:56;101318.88;;;19.80;37.87
58245;BME280;44550;43.864;25.986;2022-10-19T10:55:58;101309.91;;;20.24;37.28
58245;BME280;44550;43.864;25.986;2022-10-19T11:00:04;101293.63;;;20.38;36.68
58245;BME280;44550;43.864;25.986;2022-10-19T11:04:12;101290.19;;;20.69;35.82
58245;BME280;44550;43.864;25.986;2022-10-19T11:08:20;101285.31;;;20.53;34.33
58245;BME280;44550;43.864;25.986;2022-10-19T11:12:32;101270.25;;;20.52;34.36
58245;BME280;44550;43.864;25.986;2022-10-19T11:16:39;101281.38;;;21.01;33.28
58245;BME280;44550;43.864;25.986;2022-10-19T11:20:46;101278.56;;;21.05;33.04
58245;BME280;44550;43.864;25.986;2022-10-19T11:24:55;101265.09;;;21.11;32.81
58245;BME280;44550;43.864;25.986;2022-10-19T11:29:07;101271.38;;;21.09;33.18
58245;BME280;44550;43.864;25.986;2022-10-19T11:33:17;101259.28;;;21.28;31.62
58245;BME280;44550;43.864;25.986;2022-10-19T11:37:26;101246.53;;;21.10;32.00
58245;BME280;44550;43.864;25.986;2022-10-19T11:41:37;101207.44;;;20.82;32.19
58245;BME280;44550;43.864;25.986;2022-10-19T11:45:46;101258.38;;;21.00;31.94
58245;BME280;44550;43.864;25.986;2022-10-19T11:49:59;101253.31;;;21.51;30.98
58245;BME280;44550;43.864;25.986;2022-10-19T11:54:12;101231.44;;;21.42;31.38
58245;BME280;44550;43.864;25.986;2022-10-19T11:58:27;101247.41;;;21.42;31.19
58245;BME280;44550;43.864;25.986;2022-10-19T12:02:58;101242.91;;;21.72;31.57
58245;BME280;44550;43.864;25.986;2022-10-19T12:11:48;101178.91;;;21.48;30.86
58245;BME280;44550;43.864;25.986;2022-10-19T12:15:53;101216.50;;;22.22;30.16
58245;BME280;44550;43.864;25.986;2022-10-19T12:19:57;101225.13;;;22.02;29.97
58245;BME280;44550;43.864;25.986;2022-10-19T12:24:03;101226.53;;;21.86;30.03
58245;BME280;44550;43.864;25.986;2022-10-19T12:28:05;101175.94;;;21.86;29.93
58245;BME280;44550;43.864;25.986;2022-10-19T12:32:06;101199.09;;;22.37;30.09
58245;BME280;44550;43.864;25.986;2022-10-19T12:36:19;101192.22;;;22.80;29.22
58245;BME280;44550;43.864;25.986;2022-10-19T12:40:27;101195.06;;;22.50;28.67
58245;BME280;44550;43.864;25.986;2022-10-19T12:44:51;101185.25;;;22.52;28.79
58245;BME280;44550;43.864;25.986;2022-10-19T12:53:34;101187.25;;;23.17;28.24
58245;BME280;44550;43.864;25.986;2022-10-19T14:25:54;101117.97;;;22.69;28.89
58245;BME280;44550;43.864;25.986;2022-10-19T14:30:44;101120.69;;;22.67;29.47
58245;BME280;44550;43.864;25.986;2022-10-19T14:35:24;101107.06;;;22.51;28.86
58245;BME280;44550;43.864;25.986;2022-10-19T14:40:27;101135.50;;;22.51;28.86
58245;BME280;44550;43.864;25.986;2022-10-19T14:44:36;101113.50;;;22.46;29.30
58245;BME280;44550;43.864;25.986;2022-10-19T14:48:38;101128.03;;;22.61;29.58
58245;BME280;44550;43.864;25.986;2022-10-19T14:52:39;101128.69;;;22.67;30.29
58245;BME280;44550;43.864;25.986;2022-10-19T14:56:51;101118.22;;;22.63;30.00
58245;BME280;44550;43.864;25.986;2022-10-19T15:00:54;101109.69;;;22.53;29.70
58245;BME280;44550;43.864;25.986;2022-10-19T15:04:56;101102.94;;;22.43;30.37
58245;BME280;44550;43.864;25.986;2022-10-19T15:08:58;101066.69;;;22.14;31.47
58245;BME280;44550;43.864;25.986;2022-10-19T15:13:02;101120.13;;;22.34;32.18
58245;BME280;44550;43.864;25.986;2022-10-19T15:17:20;101126.28;;;22.36;33.05
58245;BME280;44550;43.864;25.986;2022-10-19T15:21:20;101127.00;;;22.15;34.09
58245;BME280;44550;43.864;25.986;2022-10-19T15:25:30;101125.97;;;21.94;34.35
58245;BME280;44550;43.864;25.986;2022-10-19T15:29:32;101106.31;;;21.45;34.75
58245;BME280;44550;43.864;25.986;2022-10-19T15:33:43;101097.31;;;20.91;35.68
58245;BME280;44550;43.864;25.986;2022-10-19T15:37:44;101128.41;;;20.58;37.24
58245;BME280;44550;43.864;25.986;2022-10-19T15:42:32;101126.25;;;20.07;38.79
58245;BME280;44550;43.864;25.986;2022-10-19T15:46:40;101114.94;;;19.25;39.04
58245;BME280;44550;43.864;25.986;2022-10-19T15:50:59;101127.47;;;18.78;39.62
58245;BME280;44550;43.864;25.986;2022-10-19T15:54:59;101135.69;;;18.65;40.44
58245;BME280;44550;43.864;25.986;2022-10-19T15:59:01;101145.25;;;18.70;41.23
58245;BME280;44550;43.864;25.986;2022-10-19T16:03:04;101138.00;;;18.82;41.37
58245;BME280;44550;43.864;25.986;2022-10-19T16:07:06;101147.75;;;18.35;41.68
58245;BME280;44550;43.864;25.986;2022-10-19T16:11:11;101122.69;;;17.52;43.55
58245;BME280;44550;43.864;25.986;2022-10-19T16:15:15;101133.59;;;17.29;44.38
58245;BME280;44550;43.864;25.986;2022-10-19T16:19:18;101157.50;;;17.18;44.55
58245;BME280;44550;43.864;25.986;2022-10-19T16:23:20;101137.84;;;16.71;45.63
58245;BME280;44550;43.864;25.986;2022-10-19T16:27:20;101141.66;;;16.45;46.65
58245;BME280;44550;43.864;25.986;2022-10-19T16:31:20;101133.94;;;16.27;47.09
58245;BME280;44550;43.864;25.986;2022-10-19T16:35:21;101142.00;;;16.12;47.48
58245;BME280;44550;43.864;25.986;2022-10-19T16:39:22;101115.03;;;15.84;47.29
58245;BME280;44550;43.864;25.986;2022-10-19T16:43:22;101160.34;;;16.24;46.63
58245;BME280;44550;43.864;25.986;2022-10-19T16:47:23;101165.28;;;16.58;44.88
58245;BME280;44550;43.864;25.986;2022-10-19T16:51:32;101150.13;;;16.75;43.30
58245;BME280;44550;43.864;25.986;2022-10-19T16:55:36;101109.94;;;16.49;43.44
58245;BME280;44550;43.864;25.986;2022-10-19T16:59:49;101155.72;;;16.48;44.79
58245;BME280;44550;43.864;25.986;2022-10-19T17:03:55;101174.63;;;16.02;46.97
58245;BME280;44550;43.864;25.986;2022-10-19T17:07:54;101181.75;;;15.92;47.30
58245;BME280;44550;43.864;25.986;2022-10-19T17:11:56;101179.03;;;16.01;47.40
58245;BME280;44550;43.864;25.986;2022-10-19T17:16:01;101193.78;;;16.22;47.89
58245;BME280;44550;43.864;25.986;2022-10-19T17:20:21;101187.41;;;16.44;47.39
58245;BME280;44550;43.864;25.986;2022-10-19T17:24:24;101199.63;;;16.55;47.11
58245;BME280;44550;43.864;25.986;2022-10-19T17:28:27;101157.81;;;16.16;47.40
58245;BME280;44550;43.864;25.986;2022-10-19T17:32:28;101183.41;;;16.07;48.38
58245;BME280;44550;43.864;25.986;2022-10-19T17:36:30;101204.56;;;15.97;48.59
58245;BME280;44550;43.864;25.986;2022-10-19T17:40:31;101158.25;;;15.60;49.31
58245;BME280;44550;43.864;25.986;2022-10-19T17:44:34;101197.88;;;15.44;49.19
58245;BME280;44550;43.864;25.986;2022-10-19T17:48:35;101205.72;;;15.52;50.21
58245;BME280;44550;43.864;25.986;2022-10-19T17:52:36;101203.56;;;16.14;48.70
58245;BME280;44550;43.864;25.986;2022-10-19T17:56:37;101205.25;;;16.23;48.43
58245;BME280;44550;43.864;25.986;2022-10-19T18:00:39;101213.91;;;16.32;48.15
58245;BME280;44550;43.864;25.986;2022-10-19T18:04:41;101201.84;;;16.08;48.74
58245;BME280;44550;43.864;25.986;2022-10-19T18:08:54;101196.81;;;15.78;49.13
58245;BME280;44550;43.864;25.986;2022-10-19T18:12:59;101200.22;;;15.89;49.46
58245;BME280;44550;43.864;25.986;2022-10-19T18:17:06;101207.28;;;15.87;49.82
58245;BME280;44550;43.864;25.986;2022-10-19T18:21:08;101208.34;;;15.60;50.47
58245;BME280;44550;43.864;25.986;2022-10-19T18:25:14;101207.59;;;15.35;51.46
58245;BME280;44550;43.864;25.986;2022-10-19T18:29:28;101218.28;;;15.04;52.74
58245;BME280;44550;43.864;25.986;2022-10-19T18:33:33;101214.00;;;14.46;53.87
58245;BME280;44550;43.864;25.986;2022-10-19T18:37:37;101206.13;;;14.23;54.33
58245;BME280;44550;43.864;25.986;2022-10-19T18:41:47;101205.25;;;14.14;54.04
58245;BME280;44550;43.864;25.986;2022-10-19T18:45:54;101200.00;;;14.27;53.65
58245;BME280;44550;43.864;25.986;2022-10-19T18:49:56;101185.09;;;14.09;53.35
58245;BME280;44550;43.864;25.986;2022-10-19T18:53:58;101200.88;;;14.16;53.79
58245;BME280;44550;43.864;25.986;2022-10-19T18:58:02;101185.97;;;14.22;53.91
58245;BME280;44550;43.864;25.986;2022-10-19T19:02:01;101196.44;;;14.68;52.84
58245;BME280;44550;43.864;25.986;2022-10-19T19:06:06;101197.34;;;14.46;53.41
58245;BME280;44550;43.864;25.986;2022-10-19T19:10:07;101196.53;;;14.04;54.42
58245;BME280;44550;43.864;25.986;2022-10-19T19:14:11;101181.59;;;13.68;55.27
58245;BME280;44550;43.864;25.986;2022-10-19T19:18:13;101214.00;;;13.68;56.28
58245;BME280;44550;43.864;25.986;2022-10-19T19:22:15;101234.06;;;13.37;56.99
58245;BME280;44550;43.864;25.986;2022-10-19T19:26:17;101182.22;;;12.88;57.48
58245;BME280;44550;43.864;25.986;2022-10-19T19:30:17;101235.81;;;13.32;57.62
58245;BME280;44550;43.864;25.986;2022-10-19T19:34:17;101218.22;;;13.23;58.25
58245;BME280;44550;43.864;25.986;2022-10-19T19:38:38;101228.69;;;13.12;58.21
58245;BME280;44550;43.864;25.986;2022-10-19T19:43:02;101189.97;;;12.64;58.16
58245;BME280;44550;43.864;25.986;2022-10-19T19:47:13;101197.78;;;12.53;58.26
58245;BME280;44550;43.864;25.986;2022-10-19T19:51:25;101241.56;;;12.62;59.13
58245;BME280;44550;43.864;25.986;2022-10-19T19:55:32;101254.94;;;13.08;58.65
58245;BME280;44550;43.864;25.986;2022-10-19T19:59:38;101265.69;;;13.65;57.77
58245;BME280;44550;43.864;25.986;2022-10-19T20:03:43;101268.38;;;14.09;56.08
58245;BME280;44550;43.864;25.986;2022-10-19T20:07:47;101285.91;;;14.85;53.49
58245;BME280;44550;43.864;25.986;2022-10-19T20:11:49;101261.38;;;14.77;52.72
58245;BME280;44550;43.864;25.986;2022-10-19T20:16:06;101270.88;;;15.22;52.08
58245;BME280;44550;43.864;25.986;2022-10-19T20:20:08;101298.09;;;15.23;52.22
58245;BME280;44550;43.864;25.986;2022-10-19T20:24:08;101271.88;;;14.91;52.83
58245;BME280;44550;43.864;25.986;2022-10-19T20:28:10;101279.78;;;14.82;53.51
58245;BME280;44550;43.864;25.986;2022-10-19T20:32:09;101266.66;;;14.52;54.46
58245;BME280;44550;43.864;25.986;2022-10-19T20:36:11;101267.50;;;14.27;55.69
58245;BME280;44550;43.864;25.986;2022-10-19T20:40:11;101227.13;;;13.60;56.77
58245;BME280;44550;43.864;25.986;2022-10-19T20:44:14;101279.78;;;14.28;56.31
58245;BME280;44550;43.864;25.986;2022-10-19T20:48:16;101299.09;;;14.48;55.95
58245;BME280;44550;43.864;25.986;2022-10-19T20:52:16;101299.09;;;14.68;55.45
58245;BME280;44550;43.864;25.986;2022-10-19T20:56:17;101284.19;;;14.52;55.50
58245;BME280;44550;43.864;25.986;2022-10-19T21:00:20;101278.03;;;14.42;55.60
58245;BME280;44550;43.864;25.986;2022-10-19T21:04:21;101294.69;;;14.15;56.04
58245;BME280;44550;43.864;25.986;2022-10-19T21:08:21;101291.16;;;13.92;56.95
58245;BME280;44550;43.864;25.986;2022-10-19T21:12:21;101305.16;;;13.86;57.56
58245;BME280;44550;43.864;25.986;2022-10-19T21:16:26;101299.06;;;14.01;57.53
58245;BME280;44550;43.864;25.986;2022-10-19T21:20:26;101287.63;;;13.93;57.04
58245;BME280;44550;43.864;25.986;2022-10-19T21:24:27;101272.78;;;14.21;56.28
58245;BME280;44550;43.864;25.986;2022-10-19T21:28:30;101247.34;;;14.12;55.98
58245;BME280;44550;43.864;25.986;2022-10-19T21:32:47;101314.84;;;14.33;55.35
58245;BME280;44550;43.864;25.986;2022-10-19T21:36:49;101328.81;;;13.89;55.71
58245;BME280;44550;43.864;25.986;2022-10-19T21:40:48;101339.94;;;13.27;60.65
58245;BME280;44550;43.864;25.986;2022-10-19T21:44:48;101351.09;;;12.92;59.80
58245;BME280;44550;43.864;25.986;2022-10-19T21:48:59;101347.28;;;12.53;58.32
58245;BME280;44550;43.864;25.986;2022-10-19T21:52:59;101352.53;;;12.53;58.17
58245;BME280;44550;43.864;25.986;2022-10-19T21:56:58;101335.19;;;12.70;57.63
58245;BME280;44550;43.864;25.986;2022-10-19T22:01:02;101334.31;;;12.68;57.26
58245;BME280;44550;43.864;25.986;2022-10-19T22:05:05;101337.75;;;12.64;57.61
58245;BME280;44550;43.864;25.986;2022-10-19T22:09:06;101344.88;;;12.81;56.91
58245;BME280;44550;43.864;25.986;2022-10-19T22:13:07;101323.63;;;12.47;57.63
58245;BME280;44550;43.864;25.986;2022-10-19T22:17:06;101320.78;;;12.24;57.49
58245;BME280;44550;43.864;25.986;2022-10-19T22:21:11;101355.81;;;12.29;58.14
58245;BME280;44550;43.864;25.986;2022-10-19T22:25:11;101357.41;;;12.13;58.68
58245;BME280;44550;43.864;25.986;2022-10-19T22:29:11;101342.97;;;11.74;58.54
58245;BME280;44550;43.864;25.986;2022-10-19T22:33:24;101360.47;;;11.75;58.67
58245;BME280;44550;43.864;25.986;2022-10-19T22:37:26;101366.94;;;11.37;58.49
58245;BME280;44550;43.864;25.986;2022-10-19T22:41:25;101366.94;;;11.37;58.96
58245;BME280;44550;43.864;25.986;2022-10-19T22:45:25;101387.06;;;11.41;58.61
58245;BME280;44550;43.864;25.986;2022-10-19T22:49:25;101364.00;;;11.15;58.26
58245;BME280;44550;43.864;25.986;2022-10-19T22:53:27;101380.28;;;10.94;59.29
58245;BME280;44550;43.864;25.986;2022-10-19T22:57:26;101364.47;;;10.87;59.19
58245;BME280;44550;43.864;25.986;2022-10-19T23:01:26;101365.25;;;10.81;58.71
58245;BME280;44550;43.864;25.986;2022-10-19T23:05:26;101361.19;;;11.00;57.38
58245;BME280;44550;43.864;25.986;2022-10-19T23:09:27;101377.47;;;11.41;56.53
58245;BME280;44550;43.864;25.986;2022-10-19T23:13:26;101371.63;;;11.61;56.03
58245;BME280;44550;43.864;25.986;2022-10-19T23:17:26;101377.22;;;11.88;55.25
58245;BME280;44550;43.864;25.986;2022-10-19T23:21:25;101387.13;;;12.12;54.85
58245;BME280;44550;43.864;25.986;2022-10-19T23:25:27;101390.00;;;12.38;54.16
58245;BME280;44550;43.864;25.986;2022-10-19T23:29:31;101392.56;;;12.32;54.11
58245;BME280;44550;43.864;25.986;2022-10-19T23:33:31;101368.84;;;12.20;54.20
58245;BME280;44550;43.864;25.986;2022-10-19T23:37:32;101331.09;;;12.03;53.99
58245;BME280;44550;43.864;25.986;2022-10-19T23:41:34;101393.59;;;12.51;53.64
58245;BME280;44550;43.864;25.986;2022-10-19T23:45:33;101389.25;;;12.53;53.87
58245;BME280;44550;43.864;25.986;2022-10-19T23:49:33;101405.97;;;12.64;54.49
58245;BME280;44550;43.864;25.986;2022-10-19T23:53:34;101397.13;;;12.52;54.07
58245;BME280;44550;43.864;25.986;2022-10-19T23:57:39;101417.25;;;12.53;54.04
